sensor_id;sensor_type;location;lat;lon;timestamp;P1;durP1;ratioP1;P2;durP2;ratioP2
20772;SDS011;10546;50.674;4.616;2022-11-20T09:20:37;40.67;;;17.87;;
20772;SDS011;10546;50.674;4.616;2022-11-20T09:23:03;50.50;;;18.57;;
20772;SDS011;10546;50.674;4.616;2022-11-20T09:25:29;44.43;;;18.40;;
20772;SDS011;10546;50.674;4.616;2022-11-20T09:27:58;39.33;;;17.63;;
20772;SDS011;10546;50.674;4.616;2022-11-20T09:30:24;41.60;;;15.93;;
20772;SDS011;10546;50.674;4.616;2022-11-20T09:32:50;34.50;;;14.43;;
20772;SDS011;10546;50.674;4.616;2022-11-20T09:35:16;36.23;;;15.00;;
20772;SDS011;10546;50.674;4.616;2022-11-20T09:37:42;31.07;;;16.07;;
20772;SDS011;10546;50.674;4.616;2022-11-20T09:40:17;35.03;;;14.67;;
20772;SDS011;10546;50.674;4.616;2022-11-20T09:42:55;27.67;;;12.93;;
20772;SDS011;10546;50.674;4.616;2022-11-20T09:45:30;32.27;;;12.67;;
20772;SDS011;10546;50.674;4.616;2022-11-20T09:54:17;20.10;;;9.27;;
20772;SDS011;10546;50.674;4.616;2022-11-20T09:56:50;23.10;;;10.50;;
20772;SDS011;10546;50.674;4.616;2022-11-20T09:59:29;20.90;;;9.43;;
20772;SDS011;10546;50.674;4.616;2022-11-20T10:02:03;21.23;;;9.87;;
20772;SDS011;10546;50.674;4.616;2022-11-20T10:04:42;18.90;;;10.10;;
20772;SDS011;10546;50.674;4.616;2022-11-20T10:09:52;21.30;;;8.67;;
20772;SDS011;10546;50.674;4.616;2022-11-20T10:20:50;16.53;;;6.93;;
20772;SDS011;10546;50.674;4.616;2022-11-20T10:29:01;12.23;;;5.77;;
20772;SDS011;10546;50.674;4.616;2022-11-20T10:31:37;10.27;;;5.67;;
20772;SDS011;10546;50.674;4.616;2022-11-20T10:34:22;12.03;;;5.67;;
20772;SDS011;10546;50.674;4.616;2022-11-20T10:42:13;11.53;;;4.83;;
20772;SDS011;10546;50.674;4.616;2022-11-20T10:44:47;14.70;;;5.40;;
20772;SDS011;10546;50.674;4.616;2022-11-20T10:47:28;9.87;;;4.70;;
20772;SDS011;10546;50.674;4.616;2022-11-20T10:49:57;10.57;;;4.47;;
20772;SDS011;10546;50.674;4.616;2022-11-20T11:00:39;13.83;;;5.37;;
20772;SDS011;10546;50.674;4.616;2022-11-20T11:03:14;11.83;;;3.87;;
20772;SDS011;10546;50.674;4.616;2022-11-20T11:05:58;9.00;;;4.00;;
20772;SDS011;10546;50.674;4.616;2022-11-20T11:08:35;6.13;;;3.50;;
20772;SDS011;10546;50.674;4.616;2022-11-20T11:11:46;5.80;;;2.83;;
20772;SDS011;10546;50.674;4.616;2022-11-20T11:14:03;7.73;;;3.47;;
20772;SDS011;10546;50.674;4.616;2022-11-20T11:16:48;8.07;;;3.80;;
20772;SDS011;10546;50.674;4.616;2022-11-20T11:19:16;8.37;;;3.53;;
20772;SDS011;10546;50.674;4.616;2022-11-20T11:21:59;8.13;;;3.50;;
20772;SDS011;10546;50.674;4.616;2022-11-20T11:24:27;5.30;;;3.00;;
20772;SDS011;10546;50.674;4.616;2022-11-20T11:26:57;8.13;;;3.63;;
20772;SDS011;10546;50.674;4.616;2022-11-20T11:29:31;16.37;;;7.10;;
20772;SDS011;10546;50.674;4.616;2022-11-20T11:34:30;4.40;;;2.47;;
20772;SDS011;10546;50.674;4.616;2022-11-20T11:36:57;4.10;;;2.83;;
20772;SDS011;10546;50.674;4.616;2022-11-20T11:39:24;6.20;;;3.10;;
20772;SDS011;10546;50.674;4.616;2022-11-20T11:41:51;7.23;;;3.23;;
20772;SDS011;10546;50.674;4.616;2022-11-20T11:47:03;6.23;;;3.10;;
20772;SDS011;10546;50.674;4.616;2022-11-20T11:49:34;10.80;;;3.20;;
20772;SDS011;10546;50.674;4.616;2022-11-20T11:52:18;5.33;;;2.70;;
20772;SDS011;10546;50.674;4.616;2022-11-20T11:54:50;6.10;;;2.83;;
20772;SDS011;10546;50.674;4.616;2022-11-20T12:02:36;16.07;;;3.20;;
20772;SDS011;10546;50.674;4.616;2022-11-20T12:05:39;6.00;;;2.97;;
20772;SDS011;10546;50.674;4.616;2022-11-20T12:13:30;8.07;;;2.90;;
20772;SDS011;10546;50.674;4.616;2022-11-20T12:16:02;5.90;;;3.20;;
20772;SDS011;10546;50.674;4.616;2022-11-20T12:18:32;8.87;;;3.43;;
20772;SDS011;10546;50.674;4.616;2022-11-20T12:26:42;12.50;;;4.23;;
20772;SDS011;10546;50.674;4.616;2022-11-20T12:29:32;8.50;;;4.67;;
20772;SDS011;10546;50.674;4.616;2022-11-20T12:39:50;9.57;;;3.63;;
20772;SDS011;10546;50.674;4.616;2022-11-20T12:42:36;11.50;;;4.40;;
20772;SDS011;10546;50.674;4.616;2022-11-20T12:48:09;6.17;;;3.77;;
20772;SDS011;10546;50.674;4.616;2022-11-20T12:53:43;13.50;;;4.93;;
20772;SDS011;10546;50.674;4.616;2022-11-20T12:56:37;5.67;;;2.83;;
20772;SDS011;10546;50.674;4.616;2022-11-20T12:59:26;7.43;;;3.20;;
20772;SDS011;10546;50.674;4.616;2022-11-20T13:07:44;7.57;;;3.70;;
20772;SDS011;10546;50.674;4.616;2022-11-20T13:10:32;7.43;;;3.03;;
20772;SDS011;10546;50.674;4.616;2022-11-20T13:13:07;11.30;;;3.93;;
20772;SDS011;10546;50.674;4.616;2022-11-20T13:15:45;8.23;;;3.33;;
20772;SDS011;10546;50.674;4.616;2022-11-20T13:18:29;9.83;;;4.77;;
20772;SDS011;10546;50.674;4.616;2022-11-20T13:21:12;13.03;;;5.30;;
20772;SDS011;10546;50.674;4.616;2022-11-20T13:29:29;11.60;;;4.60;;
20772;SDS011;10546;50.674;4.616;2022-11-20T13:32:18;11.83;;;5.20;;
20772;SDS011;10546;50.674;4.616;2022-11-20T13:34:56;8.20;;;3.70;;
20772;SDS011;10546;50.674;4.616;2022-11-20T13:37:29;7.33;;;3.63;;
20772;SDS011;10546;50.674;4.616;2022-11-20T13:40:12;10.30;;;3.90;;
20772;SDS011;10546;50.674;4.616;2022-11-20T13:42:45;10.53;;;3.93;;
20772;SDS011;10546;50.674;4.616;2022-11-20T13:45:27;7.57;;;3.97;;
20772;SDS011;10546;50.674;4.616;2022-11-20T13:47:54;5.83;;;3.10;;
20772;SDS011;10546;50.674;4.616;2022-11-20T13:50:21;5.03;;;2.80;;
20772;SDS011;10546;50.674;4.616;2022-11-20T13:53:22;7.10;;;4.07;;
20772;SDS011;10546;50.674;4.616;2022-11-20T13:58:59;8.83;;;5.23;;
20772;SDS011;10546;50.674;4.616;2022-11-20T14:01:34;4.47;;;2.70;;
20772;SDS011;10546;50.674;4.616;2022-11-20T14:04:00;8.77;;;4.70;;
20772;SDS011;10546;50.674;4.616;2022-11-20T14:06:42;6.70;;;3.33;;
20772;SDS011;10546;50.674;4.616;2022-11-20T14:09:13;10.70;;;4.50;;
20772;SDS011;10546;50.674;4.616;2022-11-20T14:11:51;10.00;;;3.77;;
20772;SDS011;10546;50.674;4.616;2022-11-20T14:14:17;6.57;;;3.80;;
20772;SDS011;10546;50.674;4.616;2022-11-20T14:16:45;7.63;;;3.87;;
20772;SDS011;10546;50.674;4.616;2022-11-20T14:21:49;9.63;;;6.63;;
20772;SDS011;10546;50.674;4.616;2022-11-20T14:24:21;10.57;;;6.97;;
20772;SDS011;10546;50.674;4.616;2022-11-20T14:26:49;3.87;;;2.57;;
20772;SDS011;10546;50.674;4.616;2022-11-20T14:29:17;5.67;;;3.77;;
20772;SDS011;10546;50.674;4.616;2022-11-20T14:31:50;7.43;;;3.90;;
20772;SDS011;10546;50.674;4.616;2022-11-20T14:34:19;6.57;;;4.07;;
20772;SDS011;10546;50.674;4.616;2022-11-20T14:36:47;11.27;;;6.80;;
20772;SDS011;10546;50.674;4.616;2022-11-20T14:39:20;8.97;;;6.77;;
20772;SDS011;10546;50.674;4.616;2022-11-20T14:41:52;7.97;;;5.33;;
20772;SDS011;10546;50.674;4.616;2022-11-20T14:44:32;6.00;;;3.97;;
20772;SDS011;10546;50.674;4.616;2022-11-20T14:47:00;8.40;;;4.70;;
20772;SDS011;10546;50.674;4.616;2022-11-20T14:49:28;6.57;;;5.03;;
20772;SDS011;10546;50.674;4.616;2022-11-20T14:52:18;7.73;;;4.17;;
20772;SDS011;10546;50.674;4.616;2022-11-20T14:54:49;5.97;;;4.13;;
20772;SDS011;10546;50.674;4.616;2022-11-20T14:57:21;17.90;;;11.37;;
20772;SDS011;10546;50.674;4.616;2022-11-20T15:00:07;9.47;;;5.37;;
20772;SDS011;10546;50.674;4.616;2022-11-20T15:02:42;12.80;;;6.77;;
20772;SDS011;10546;50.674;4.616;2022-11-20T15:05:09;25.03;;;17.03;;
20772;SDS011;10546;50.674;4.616;2022-11-20T15:07:37;20.60;;;13.23;;
20772;SDS011;10546;50.674;4.616;2022-11-20T15:10:09;16.80;;;7.70;;
20772;SDS011;10546;50.674;4.616;2022-11-20T15:12:46;9.83;;;6.43;;
20772;SDS011;10546;50.674;4.616;2022-11-20T15:15:21;11.03;;;6.60;;
20772;SDS011;10546;50.674;4.616;2022-11-20T15:18:04;4.27;;;2.83;;
20772;SDS011;10546;50.674;4.616;2022-11-20T15:20:37;43.97;;;29.63;;
20772;SDS011;10546;50.674;4.616;2022-11-20T15:23:08;77.77;;;52.10;;
20772;SDS011;10546;50.674;4.616;2022-11-20T15:25:39;38.70;;;22.27;;
20772;SDS011;10546;50.674;4.616;2022-11-20T15:28:13;19.13;;;10.53;;
20772;SDS011;10546;50.674;4.616;2022-11-20T15:30:47;16.97;;;10.23;;
20772;SDS011;10546;50.674;4.616;2022-11-20T15:33:16;13.40;;;8.10;;
20772;SDS011;10546;50.674;4.616;2022-11-20T15:35:45;11.67;;;6.40;;
20772;SDS011;10546;50.674;4.616;2022-11-20T15:38:12;22.07;;;13.10;;
20772;SDS011;10546;50.674;4.616;2022-11-20T15:40:38;18.30;;;9.00;;
20772;SDS011;10546;50.674;4.616;2022-11-20T15:43:04;18.63;;;11.20;;
20772;SDS011;10546;50.674;4.616;2022-11-20T15:45:52;15.47;;;10.07;;
20772;SDS011;10546;50.674;4.616;2022-11-20T15:48:22;20.47;;;11.73;;
20772;SDS011;10546;50.674;4.616;2022-11-20T15:50:53;20.57;;;9.30;;
20772;SDS011;10546;50.674;4.616;2022-11-20T15:53:28;18.80;;;9.10;;
20772;SDS011;10546;50.674;4.616;2022-11-20T15:55:53;21.60;;;11.67;;
20772;SDS011;10546;50.674;4.616;2022-11-20T15:58:20;14.63;;;7.07;;
20772;SDS011;10546;50.674;4.616;2022-11-20T16:00:47;23.03;;;12.17;;
20772;SDS011;10546;50.674;4.616;2022-11-20T16:03:13;20.90;;;7.97;;
20772;SDS011;10546;50.674;4.616;2022-11-20T16:05:43;20.33;;;8.80;;
20772;SDS011;10546;50.674;4.616;2022-11-20T16:08:09;11.80;;;7.13;;
20772;SDS011;10546;50.674;4.616;2022-11-20T16:10:37;9.97;;;6.17;;
20772;SDS011;10546;50.674;4.616;2022-11-20T16:13:14;19.90;;;6.13;;
20772;SDS011;10546;50.674;4.616;2022-11-20T16:16:01;25.07;;;10.93;;
20772;SDS011;10546;50.674;4.616;2022-11-20T16:18:32;18.33;;;10.63;;
20772;SDS011;10546;50.674;4.616;2022-11-20T16:20:57;14.97;;;6.47;;
20772;SDS011;10546;50.674;4.616;2022-11-20T16:23:23;18.57;;;6.70;;
20772;SDS011;10546;50.674;4.616;2022-11-20T16:25:49;54.53;;;36.53;;
20772;SDS011;10546;50.674;4.616;2022-11-20T16:28:15;16.83;;;6.20;;
20772;SDS011;10546;50.674;4.616;2022-11-20T16:30:41;18.00;;;7.37;;
20772;SDS011;10546;50.674;4.616;2022-11-20T16:33:14;17.17;;;9.37;;
20772;SDS011;10546;50.674;4.616;2022-11-20T16:35:41;17.30;;;6.60;;
20772;SDS011;10546;50.674;4.616;2022-11-20T16:38:07;18.90;;;8.80;;
20772;SDS011;10546;50.674;4.616;2022-11-20T16:40:33;16.20;;;8.00;;
20772;SDS011;10546;50.674;4.616;2022-11-20T16:43:17;24.23;;;8.93;;
20772;SDS011;10546;50.674;4.616;2022-11-20T16:45:44;43.37;;;20.37;;
20772;SDS011;10546;50.674;4.616;2022-11-20T16:48:14;22.57;;;8.53;;
20772;SDS011;10546;50.674;4.616;2022-11-20T16:50:44;40.40;;;21.60;;
20772;SDS011;10546;50.674;4.616;2022-11-20T16:53:12;26.53;;;14.13;;
20772;SDS011;10546;50.674;4.616;2022-11-20T16:55:37;33.40;;;14.57;;
20772;SDS011;10546;50.674;4.616;2022-11-20T16:58:03;23.17;;;9.30;;
20772;SDS011;10546;50.674;4.616;2022-11-20T17:00:28;34.87;;;14.90;;
20772;SDS011;10546;50.674;4.616;2022-11-20T17:02:54;18.97;;;9.43;;
20772;SDS011;10546;50.674;4.616;2022-11-20T17:05:19;55.27;;;26.33;;
20772;SDS011;10546;50.674;4.616;2022-11-20T17:07:45;36.03;;;19.83;;
20772;SDS011;10546;50.674;4.616;2022-11-20T17:10:10;26.77;;;11.00;;
20772;SDS011;10546;50.674;4.616;2022-11-20T17:12:36;44.43;;;20.20;;
20772;SDS011;10546;50.674;4.616;2022-11-20T17:15:02;70.10;;;26.67;;
20772;SDS011;10546;50.674;4.616;2022-11-20T17:17:27;57.67;;;19.07;;
20772;SDS011;10546;50.674;4.616;2022-11-20T17:19:53;60.27;;;21.20;;
20772;SDS011;10546;50.674;4.616;2022-11-20T17:22:19;68.23;;;24.80;;
20772;SDS011;10546;50.674;4.616;2022-11-20T17:24:44;62.97;;;20.93;;
20772;SDS011;10546;50.674;4.616;2022-11-20T17:27:10;57.73;;;23.50;;
20772;SDS011;10546;50.674;4.616;2022-11-20T17:29:35;88.90;;;32.40;;
20772;SDS011;10546;50.674;4.616;2022-11-20T17:32:01;57.60;;;19.63;;
20772;SDS011;10546;50.674;4.616;2022-11-20T17:34:26;47.70;;;16.53;;
20772;SDS011;10546;50.674;4.616;2022-11-20T17:36:52;52.60;;;19.53;;
20772;SDS011;10546;50.674;4.616;2022-11-20T17:39:19;44.67;;;17.67;;
20772;SDS011;10546;50.674;4.616;2022-11-20T17:41:45;40.60;;;18.63;;
20772;SDS011;10546;50.674;4.616;2022-11-20T17:44:30;42.60;;;18.97;;
20772;SDS011;10546;50.674;4.616;2022-11-20T17:46:56;42.83;;;18.73;;
20772;SDS011;10546;50.674;4.616;2022-11-20T17:49:21;34.43;;;13.93;;
20772;SDS011;10546;50.674;4.616;2022-11-20T17:51:47;32.57;;;13.27;;
20772;SDS011;10546;50.674;4.616;2022-11-20T17:54:12;36.80;;;14.33;;
20772;SDS011;10546;50.674;4.616;2022-11-20T17:56:38;29.00;;;13.73;;
20772;SDS011;10546;50.674;4.616;2022-11-20T17:59:22;22.13;;;10.43;;
20772;SDS011;10546;50.674;4.616;2022-11-20T18:01:48;29.13;;;8.70;;
20772;SDS011;10546;50.674;4.616;2022-11-20T18:04:14;28.83;;;14.10;;
20772;SDS011;10546;50.674;4.616;2022-11-20T18:06:40;23.20;;;8.97;;
20772;SDS011;10546;50.674;4.616;2022-11-20T18:09:06;46.87;;;19.20;;
20772;SDS011;10546;50.674;4.616;2022-11-20T18:11:34;61.80;;;27.47;;
20772;SDS011;10546;50.674;4.616;2022-11-20T18:14:02;44.23;;;13.63;;
20772;SDS011;10546;50.674;4.616;2022-11-20T18:16:55;28.37;;;10.47;;
20772;SDS011;10546;50.674;4.616;2022-11-20T18:19:29;33.77;;;12.90;;
20772;SDS011;10546;50.674;4.616;2022-11-20T18:21:56;24.97;;;10.20;;
20772;SDS011;10546;50.674;4.616;2022-11-20T18:24:23;21.07;;;8.23;;
20772;SDS011;10546;50.674;4.616;2022-11-20T18:26:49;29.03;;;8.23;;
20772;SDS011;10546;50.674;4.616;2022-11-20T18:29:15;27.43;;;8.67;;
20772;SDS011;10546;50.674;4.616;2022-11-20T18:31:41;30.13;;;9.97;;
20772;SDS011;10546;50.674;4.616;2022-11-20T18:34:07;25.63;;;7.77;;
20772;SDS011;10546;50.674;4.616;2022-11-20T18:36:35;33.60;;;8.50;;
20772;SDS011;10546;50.674;4.616;2022-11-20T18:39:03;19.87;;;6.47;;
20772;SDS011;10546;50.674;4.616;2022-11-20T18:41:29;48.10;;;17.80;;
20772;SDS011;10546;50.674;4.616;2022-11-20T18:44:15;61.37;;;17.87;;
20772;SDS011;10546;50.674;4.616;2022-11-20T18:47:01;45.40;;;12.50;;
20772;SDS011;10546;50.674;4.616;2022-11-20T18:49:27;32.93;;;10.53;;
20772;SDS011;10546;50.674;4.616;2022-11-20T18:51:53;35.03;;;11.37;;
20772;SDS011;10546;50.674;4.616;2022-11-20T18:54:19;31.80;;;10.30;;
20772;SDS011;10546;50.674;4.616;2022-11-20T18:56:44;33.00;;;11.47;;
20772;SDS011;10546;50.674;4.616;2022-11-20T18:59:10;28.70;;;9.40;;
20772;SDS011;10546;50.674;4.616;2022-11-20T19:01:37;32.30;;;10.30;;
20772;SDS011;10546;50.674;4.616;2022-11-20T19:04:07;50.37;;;13.13;;
20772;SDS011;10546;50.674;4.616;2022-11-20T19:06:38;33.23;;;12.80;;
20772;SDS011;10546;50.674;4.616;2022-11-20T19:09:05;26.70;;;8.00;;
20772;SDS011;10546;50.674;4.616;2022-11-20T19:11:34;103.93;;;43.10;;
20772;SDS011;10546;50.674;4.616;2022-11-20T19:14:01;47.20;;;19.77;;
20772;SDS011;10546;50.674;4.616;2022-11-20T19:16:27;30.13;;;10.93;;
20772;SDS011;10546;50.674;4.616;2022-11-20T19:18:53;32.03;;;11.23;;
20772;SDS011;10546;50.674;4.616;2022-11-20T19:21:19;34.37;;;13.83;;
20772;SDS011;10546;50.674;4.616;2022-11-20T19:23:51;33.20;;;11.50;;
20772;SDS011;10546;50.674;4.616;2022-11-20T19:26:18;34.43;;;13.77;;
20772;SDS011;10546;50.674;4.616;2022-11-20T19:28:44;89.53;;;62.57;;
20772;SDS011;10546;50.674;4.616;2022-11-20T19:31:11;29.33;;;13.83;;
20772;SDS011;10546;50.674;4.616;2022-11-20T19:33:42;23.67;;;9.00;;
20772;SDS011;10546;50.674;4.616;2022-11-20T19:36:08;35.10;;;13.87;;
20772;SDS011;10546;50.674;4.616;2022-11-20T19:38:39;53.53;;;29.77;;
20772;SDS011;10546;50.674;4.616;2022-11-20T19:41:06;30.27;;;11.53;;
20772;SDS011;10546;50.674;4.616;2022-11-20T19:43:32;26.63;;;6.97;;
20772;SDS011;10546;50.674;4.616;2022-11-20T19:45:58;27.93;;;11.83;;
20772;SDS011;10546;50.674;4.616;2022-11-20T19:48:24;31.53;;;14.60;;
20772;SDS011;10546;50.674;4.616;2022-11-20T19:50:50;47.20;;;23.10;;
20772;SDS011;10546;50.674;4.616;2022-11-20T19:53:16;36.53;;;14.93;;
20772;SDS011;10546;50.674;4.616;2022-11-20T19:55:53;34.97;;;16.27;;
20772;SDS011;10546;50.674;4.616;2022-11-20T19:58:19;28.27;;;7.50;;
20772;SDS011;10546;50.674;4.616;2022-11-20T20:00:45;87.87;;;62.93;;
20772;SDS011;10546;50.674;4.616;2022-11-20T20:03:10;21.27;;;7.37;;
20772;SDS011;10546;50.674;4.616;2022-11-20T20:05:36;56.20;;;32.53;;
20772;SDS011;10546;50.674;4.616;2022-11-20T20:08:01;35.50;;;18.30;;
20772;SDS011;10546;50.674;4.616;2022-11-20T20:10:27;33.40;;;15.03;;
20772;SDS011;10546;50.674;4.616;2022-11-20T20:12:53;33.73;;;12.00;;
20772;SDS011;10546;50.674;4.616;2022-11-20T20:15:18;35.90;;;16.00;;
20772;SDS011;10546;50.674;4.616;2022-11-20T20:17:44;32.07;;;11.43;;
20772;SDS011;10546;50.674;4.616;2022-11-20T20:20:09;24.73;;;10.43;;
20772;SDS011;10546;50.674;4.616;2022-11-20T20:22:35;25.73;;;12.13;;
20772;SDS011;10546;50.674;4.616;2022-11-20T20:25:01;60.20;;;23.00;;
20772;SDS011;10546;50.674;4.616;2022-11-20T20:27:26;60.07;;;24.10;;
20772;SDS011;10546;50.674;4.616;2022-11-20T20:29:52;79.53;;;30.00;;
20772;SDS011;10546;50.674;4.616;2022-11-20T20:32:17;55.07;;;22.40;;
20772;SDS011;10546;50.674;4.616;2022-11-20T20:34:43;88.77;;;27.53;;
20772;SDS011;10546;50.674;4.616;2022-11-20T20:37:10;129.60;;;39.40;;
20772;SDS011;10546;50.674;4.616;2022-11-20T20:39:36;74.80;;;24.87;;
20772;SDS011;10546;50.674;4.616;2022-11-20T20:42:08;123.73;;;38.40;;
20772;SDS011;10546;50.674;4.616;2022-11-20T20:44:33;106.93;;;30.53;;
20772;SDS011;10546;50.674;4.616;2022-11-20T20:47:18;147.67;;;41.10;;
20772;SDS011;10546;50.674;4.616;2022-11-20T20:49:43;181.17;;;56.90;;
20772;SDS011;10546;50.674;4.616;2022-11-20T20:52:10;105.03;;;32.83;;
20772;SDS011;10546;50.674;4.616;2022-11-20T20:54:36;160.00;;;46.50;;
20772;SDS011;10546;50.674;4.616;2022-11-20T20:57:02;135.73;;;46.17;;
20772;SDS011;10546;50.674;4.616;2022-11-20T20:59:27;98.27;;;30.53;;
20772;SDS011;10546;50.674;4.616;2022-11-20T21:01:53;80.07;;;28.13;;
20772;SDS011;10546;50.674;4.616;2022-11-20T21:04:18;42.07;;;12.40;;
20772;SDS011;10546;50.674;4.616;2022-11-20T21:06:44;58.60;;;21.83;;
20772;SDS011;10546;50.674;4.616;2022-11-20T21:09:10;37.60;;;13.83;;
20772;SDS011;10546;50.674;4.616;2022-11-20T21:11:36;50.13;;;20.80;;
20772;SDS011;10546;50.674;4.616;2022-11-20T21:14:03;47.33;;;16.43;;
20772;SDS011;10546;50.674;4.616;2022-11-20T21:16:29;32.00;;;12.13;;
20772;SDS011;10546;50.674;4.616;2022-11-20T21:19:05;31.37;;;11.83;;
20772;SDS011;10546;50.674;4.616;2022-11-20T21:21:32;29.93;;;11.20;;
20772;SDS011;10546;50.674;4.616;2022-11-20T21:24:18;35.03;;;13.67;;
20772;SDS011;10546;50.674;4.616;2022-11-20T21:26:44;25.27;;;10.43;;
20772;SDS011;10546;50.674;4.616;2022-11-20T21:29:09;26.83;;;8.73;;
20772;SDS011;10546;50.674;4.616;2022-11-20T21:31:35;50.70;;;19.47;;
20772;SDS011;10546;50.674;4.616;2022-11-20T21:34:01;38.90;;;17.20;;
20772;SDS011;10546;50.674;4.616;2022-11-20T21:36:27;52.93;;;16.87;;
20772;SDS011;10546;50.674;4.616;2022-11-20T21:38:54;34.93;;;15.43;;
20772;SDS011;10546;50.674;4.616;2022-11-20T21:41:21;25.60;;;8.43;;
20772;SDS011;10546;50.674;4.616;2022-11-20T21:43:49;168.53;;;89.90;;
20772;SDS011;10546;50.674;4.616;2022-11-20T21:46:15;33.23;;;13.10;;
20772;SDS011;10546;50.674;4.616;2022-11-20T21:48:41;54.33;;;25.63;;
20772;SDS011;10546;50.674;4.616;2022-11-20T21:53:38;28.50;;;8.33;;
20772;SDS011;10546;50.674;4.616;2022-11-20T21:56:04;25.90;;;7.73;;
20772;SDS011;10546;50.674;4.616;2022-11-20T21:58:31;28.67;;;10.23;;
20772;SDS011;10546;50.674;4.616;2022-11-20T22:00:57;28.93;;;12.00;;
20772;SDS011;10546;50.674;4.616;2022-11-20T22:03:23;24.63;;;6.10;;
20772;SDS011;10546;50.674;4.616;2022-11-20T22:05:55;21.90;;;7.33;;
20772;SDS011;10546;50.674;4.616;2022-11-20T22:08:25;29.87;;;9.63;;
20772;SDS011;10546;50.674;4.616;2022-11-20T22:13:26;55.80;;;23.43;;
20772;SDS011;10546;50.674;4.616;2022-11-20T22:16:11;22.43;;;7.30;;
20772;SDS011;10546;50.674;4.616;2022-11-20T22:18:44;18.37;;;7.57;;
20772;SDS011;10546;50.674;4.616;2022-11-20T22:21:14;19.10;;;6.83;;
20772;SDS011;10546;50.674;4.616;2022-11-20T22:23:41;22.50;;;4.90;;
20772;SDS011;10546;50.674;4.616;2022-11-20T22:26:10;19.57;;;5.27;;
20772;SDS011;10546;50.674;4.616;2022-11-20T22:28:38;18.20;;;4.50;;
20772;SDS011;10546;50.674;4.616;2022-11-20T22:31:05;21.17;;;4.63;;
20772;SDS011;10546;50.674;4.616;2022-11-20T22:33:34;14.43;;;3.97;;
20772;SDS011;10546;50.674;4.616;2022-11-20T22:36:11;19.83;;;4.20;;
20772;SDS011;10546;50.674;4.616;2022-11-20T22:38:38;17.00;;;3.80;;
20772;SDS011;10546;50.674;4.616;2022-11-20T22:41:08;18.00;;;6.30;;
20772;SDS011;10546;50.674;4.616;2022-11-20T22:43:35;23.90;;;7.50;;
20772;SDS011;10546;50.674;4.616;2022-11-20T22:46:02;50.70;;;13.47;;
20772;SDS011;10546;50.674;4.616;2022-11-20T22:48:49;21.70;;;7.00;;
20772;SDS011;10546;50.674;4.616;2022-11-20T22:51:19;40.80;;;15.93;;
20772;SDS011;10546;50.674;4.616;2022-11-20T22:53:48;19.47;;;5.27;;
20772;SDS011;10546;50.674;4.616;2022-11-20T22:56:14;13.07;;;4.40;;
20772;SDS011;10546;50.674;4.616;2022-11-20T22:58:42;11.70;;;4.23;;
20772;SDS011;10546;50.674;4.616;2022-11-20T23:03:36;16.00;;;5.47;;
20772;SDS011;10546;50.674;4.616;2022-11-20T23:06:03;18.30;;;4.53;;
20772;SDS011;10546;50.674;4.616;2022-11-20T23:08:30;13.13;;;3.73;;
20772;SDS011;10546;50.674;4.616;2022-11-20T23:11:00;14.20;;;3.30;;
20772;SDS011;10546;50.674;4.616;2022-11-20T23:13:26;14.73;;;4.00;;
20772;SDS011;10546;50.674;4.616;2022-11-20T23:15:52;11.60;;;4.27;;
20772;SDS011;10546;50.674;4.616;2022-11-20T23:18:18;16.60;;;3.57;;
20772;SDS011;10546;50.674;4.616;2022-11-20T23:20:44;12.53;;;3.60;;
20772;SDS011;10546;50.674;4.616;2022-11-20T23:23:09;15.03;;;3.67;;
20772;SDS011;10546;50.674;4.616;2022-11-20T23:25:35;12.20;;;3.43;;
20772;SDS011;10546;50.674;4.616;2022-11-20T23:28:00;13.00;;;3.00;;
20772;SDS011;10546;50.674;4.616;2022-11-20T23:30:26;14.53;;;4.00;;
20772;SDS011;10546;50.674;4.616;2022-11-20T23:32:51;14.00;;;4.27;;
20772;SDS011;10546;50.674;4.616;2022-11-20T23:35:17;9.67;;;3.23;;
20772;SDS011;10546;50.674;4.616;2022-11-20T23:37:42;12.17;;;3.90;;
20772;SDS011;10546;50.674;4.616;2022-11-20T23:40:08;9.00;;;3.60;;
20772;SDS011;10546;50.674;4.616;2022-11-20T23:42:34;13.93;;;4.33;;
20772;SDS011;10546;50.674;4.616;2022-11-20T23:45:00;9.67;;;3.47;;
20772;SDS011;10546;50.674;4.616;2022-11-20T23:47:25;16.93;;;4.00;;
20772;SDS011;10546;50.674;4.616;2022-11-20T23:49:51;16.43;;;3.43;;
20772;SDS011;10546;50.674;4.616;2022-11-20T23:52:16;9.67;;;3.70;;
20772;SDS011;10546;50.674;4.616;2022-11-20T23:54:42;9.90;;;3.70;;
20772;SDS011;10546;50.674;4.616;2022-11-20T23:57:07;12.27;;;3.93;;
20772;SDS011;10546;50.674;4.616;2022-11-20T23:59:33;12.83;;;3.47;;
